Time;durP1;ratioP1;P1;durP2;ratioP2;P2;SDS_P1;SDS_P2;PMS_P1;PMS_P2;Temp;Humidity;BMP_temperature;BMP_pressure;BME280_temperature;BME280_humidity;BME280_pressure;Samples;Min_cycle;Max_cycle;Signal;HPM_P1;HPM_P2
2021/12/29 00:01:06;;;;;;;5.30;4.90;;;4.50;99.90;;;;;;5057060;28;20219;-78
2021/12/29 00:03:33;;;;;;;5.38;4.97;;;4.40;99.90;;;;;;5059839;28;20295;-78
2021/12/29 00:06:03;;;;;;;5.10;4.75;;;4.40;99.90;;;;;;5056525;28;20230;-78
2021/12/29 00:08:30;;;;;;;5.38;4.97;;;4.40;99.90;;;;;;5057572;28;20771;-77
2021/12/29 00:10:59;;;;;;;5.60;5.10;;;4.30;99.90;;;;;;5057988;28;20218;-79
2021/12/29 00:13:28;;;;;;;4.57;4.25;;;4.30;99.90;;;;;;5058013;28;20252;-78
2021/12/29 00:15:58;;;;;;;5.13;4.72;;;4.30;99.90;;;;;;5059499;28;20214;-77
2021/12/29 00:18:26;;;;;;;4.97;4.65;;;4.30;99.90;;;;;;5057226;28;20305;-77
2021/12/29 00:20:53;;;;;;;4.75;4.35;;;4.30;99.90;;;;;;5075641;22;20226;-64
2021/12/29 00:23:20;;;;;;;4.47;4.18;;;4.30;99.90;;;;;;5061598;28;20226;-66
2021/12/29 00:25:47;;;;;;;4.45;4.15;;;4.30;99.90;;;;;;5066560;28;20214;-64
2021/12/29 00:28:16;;;;;;;5.00;4.60;;;4.30;99.90;;;;;;5065630;28;20293;-64
2021/12/29 00:30:43;;;;;;;4.75;4.45;;;4.20;99.90;;;;;;5045646;28;20236;-65
2021/12/29 00:33:11;;;;;;;4.07;3.78;;;4.20;99.90;;;;;;5047497;28;20265;-64
2021/12/29 00:35:41;;;;;;;4.22;3.92;;;4.20;99.90;;;;;;5042132;28;20220;-64
2021/12/29 00:38:10;;;;;;;5.10;4.70;;;4.20;99.90;;;;;;5049695;28;20277;-64
2021/12/29 00:40:38;;;;;;;4.60;4.30;;;4.10;99.90;;;;;;5049152;28;20219;-64
2021/12/29 00:43:06;;;;;;;4.80;4.40;;;4.10;99.90;;;;;;5061613;28;20211;-64
2021/12/29 00:45:36;;;;;;;4.40;4.00;;;4.20;99.90;;;;;;5047379;28;20226;-64
2021/12/29 00:48:04;;;;;;;4.68;4.38;;;4.10;99.90;;;;;;5051289;28;20203;-64
2021/12/29 00:50:33;;;;;;;4.78;4.38;;;4.10;99.90;;;;;;5047444;28;20302;-64
2021/12/29 00:53:00;;;;;;;5.53;5.13;;;4.10;99.90;;;;;;5049772;28;20199;-64
2021/12/29 00:55:27;;;;;;;4.60;4.30;;;4.10;99.90;;;;;;5045500;28;20277;-64
2021/12/29 00:57:54;;;;;;;4.53;4.22;;;4.00;99.90;;;;;;5044432;28;20711;-64
2021/12/29 01:00:24;;;;;;;4.47;4.18;;;4.00;99.90;;;;;;5043204;28;20276;-65
2021/12/29 01:02:52;;;;;;;5.10;4.70;;;4.00;99.90;;;;;;5047032;28;20277;-64
2021/12/29 01:05:20;;;;;;;5.25;4.80;;;3.90;99.90;;;;;;5045239;28;20277;-64
2021/12/29 01:07:49;;;;;;;4.72;4.32;;;3.90;99.90;;;;;;5047892;28;20203;-64
2021/12/29 01:10:18;;;;;;;4.88;4.57;;;3.90;99.90;;;;;;5047848;28;20238;-64
2021/12/29 01:12:52;;;;;;;4.70;4.40;;;3.90;99.90;;;;;;5048175;28;20679;-64
2021/12/29 01:15:25;;;;;;;5.07;4.68;;;3.80;99.90;;;;;;5040893;28;20195;-64
2021/12/29 01:17:56;;;;;;;4.60;4.30;;;3.80;99.90;;;;;;5047876;28;20291;-64
2021/12/29 01:20:24;;;;;;;4.20;3.95;;;3.80;99.90;;;;;;5047060;28;20226;-64
2021/12/29 01:22:52;;;;;;;4.22;3.92;;;3.80;99.90;;;;;;5047228;28;20618;-64
2021/12/29 01:25:21;;;;;;;4.90;4.50;;;3.80;99.90;;;;;;5059278;28;20230;-64
2021/12/29 01:27:48;;;;;;;4.35;4.05;;;3.80;99.90;;;;;;5043891;28;20199;-64
2021/12/29 01:30:17;;;;;;;4.53;4.22;;;3.80;99.90;;;;;;5044287;28;20218;-64
2021/12/29 01:32:44;;;;;;;4.28;3.97;;;3.80;99.90;;;;;;5048350;28;20509;-64
2021/12/29 01:35:13;;;;;;;4.30;4.00;;;3.80;99.90;;;;;;5042973;28;20276;-64
2021/12/29 01:37:40;;;;;;;4.68;4.38;;;3.80;99.90;;;;;;5049181;28;20266;-64
2021/12/29 01:40:12;;;;;;;3.90;3.60;;;3.80;99.90;;;;;;5047231;28;20223;-64
2021/12/29 01:42:39;;;;;;;4.03;3.83;;;3.80;99.90;;;;;;5047741;28;20211;-64
2021/12/29 01:45:07;;;;;;;4.15;3.85;;;3.80;99.90;;;;;;5045983;28;20214;-64
2021/12/29 01:47:34;;;;;;;4.88;4.57;;;3.80;99.90;;;;;;5046504;28;20218;-64
2021/12/29 01:50:03;;;;;;;4.60;4.30;;;3.80;99.90;;;;;;5047126;28;20222;-64
2021/12/29 01:52:37;;;;;;;5.80;5.40;;;3.80;99.90;;;;;;5042756;28;20223;-64
2021/12/29 01:55:05;;;;;;;5.18;4.78;;;3.80;99.90;;;;;;5045541;28;20644;-64
2021/12/29 01:57:32;;;;;;;4.93;4.53;;;3.80;99.90;;;;;;5041464;28;20223;-64
2021/12/29 01:59:59;;;;;;;5.22;4.82;;;3.80;99.90;;;;;;5048738;28;20227;-64
2021/12/29 02:02:26;;;;;;;4.65;4.35;;;3.80;99.90;;;;;;5040477;28;20281;-64
2021/12/29 02:04:53;;;;;;;5.13;4.65;;;3.70;99.90;;;;;;5043244;28;20974;-64
2021/12/29 02:07:20;;;;;;;4.18;3.90;;;3.70;99.90;;;;;;5057156;28;20709;-64
2021/12/29 02:09:49;;;;;;;4.65;4.28;;;3.70;99.90;;;;;;5050086;28;20212;-64
2021/12/29 02:12:17;;;;;;;4.72;4.38;;;3.60;99.90;;;;;;5047144;28;20215;-64
2021/12/29 02:14:45;;;;;;;4.70;4.40;;;3.60;99.90;;;;;;5043289;28;20287;-64
2021/12/29 02:17:13;;;;;;;4.65;4.35;;;3.60;99.90;;;;;;5045554;28;20273;-65
2021/12/29 02:19:45;;;;;;;4.35;4.05;;;3.60;99.90;;;;;;5047227;28;20234;-64
2021/12/29 02:22:28;;;;;;;4.50;4.20;;;3.60;99.90;;;;;;5044902;28;20226;-64
2021/12/29 02:25:07;;;;;;;4.22;3.92;;;3.60;99.90;;;;;;5043272;28;20792;-64
2021/12/29 02:27:35;;;;;;;4.28;3.97;;;3.60;99.90;;;;;;5042662;28;20724;-64
2021/12/29 02:30:04;;;;;;;4.80;4.40;;;3.60;99.90;;;;;;5043923;28;20241;-64
2021/12/29 02:32:31;;;;;;;5.03;3.90;;;3.50;99.90;;;;;;5047536;28;20675;-64
2021/12/29 02:34:58;;;;;;;4.80;4.50;;;3.60;99.90;;;;;;5047464;28;20233;-65
2021/12/29 02:37:27;;;;;;;4.43;4.03;;;3.60;99.90;;;;;;5046368;28;20730;-64
2021/12/29 02:39:54;;;;;;;4.70;4.38;;;3.60;99.90;;;;;;5044073;28;20225;-64
2021/12/29 02:42:25;;;;;;;4.13;3.83;;;3.60;99.90;;;;;;5043585;28;20215;-65
2021/12/29 02:44:53;;;;;;;4.97;4.60;;;3.60;99.90;;;;;;5047128;28;20261;-64
2021/12/29 02:47:20;;;;;;;4.32;4.03;;;3.60;99.90;;;;;;5047967;28;20329;-64
2021/12/29 02:49:47;;;;;;;4.15;3.85;;;3.60;99.90;;;;;;5050074;28;20214;-65
2021/12/29 02:52:15;;;;;;;4.50;4.20;;;3.60;99.90;;;;;;5049481;28;20764;-64
2021/12/29 02:54:43;;;;;;;3.92;3.63;;;3.60;99.90;;;;;;5045168;28;20187;-64
2021/12/29 02:57:10;;;;;;;3.55;3.35;;;3.60;99.90;;;;;;5047337;28;20219;-64
2021/12/29 02:59:37;;;;;;;4.30;3.90;;;3.60;99.90;;;;;;5043840;28;20218;-64
2021/12/29 03:02:05;;;;;;;4.15;3.92;;;3.50;99.90;;;;;;5043740;28;20223;-64
2021/12/29 03:04:32;;;;;;;4.15;3.85;;;3.60;99.90;;;;;;5044966;28;20219;-64
2021/12/29 03:06:59;;;;;;;3.88;3.67;;;3.60;99.90;;;;;;5045456;28;20288;-64
2021/12/29 03:09:26;;;;;;;4.20;3.90;;;3.50;99.90;;;;;;5046412;28;20310;-64
2021/12/29 03:11:55;;;;;;;4.13;3.78;;;3.50;99.90;;;;;;5041661;28;20892;-64
2021/12/29 03:14:22;;;;;;;4.80;4.50;;;3.40;99.90;;;;;;5045148;28;20202;-64
2021/12/29 03:16:50;;;;;;;5.32;4.93;;;3.40;99.90;;;;;;5041300;28;20613;-64
2021/12/29 03:19:17;;;;;;;5.35;4.95;;;3.30;99.90;;;;;;5043805;28;20219;-64
2021/12/29 03:21:44;;;;;;;4.70;4.40;;;3.20;99.90;;;;;;5041042;28;20644;-64
2021/12/29 03:24:12;;;;;;;4.25;3.95;;;3.20;99.90;;;;;;5046529;28;20222;-64
2021/12/29 03:26:39;;;;;;;5.60;5.10;;;3.10;99.90;;;;;;5042188;28;20223;-64
2021/12/29 03:29:08;;;;;;;4.82;4.43;;;3.10;99.90;;;;;;5046965;28;20206;-64
2021/12/29 03:31:38;;;;;;;5.00;4.70;;;3.20;99.90;;;;;;5040716;28;20718;-64
2021/12/29 03:34:05;;;;;;;5.03;4.72;;;3.20;99.90;;;;;;5061856;28;20265;-64
2021/12/29 03:36:32;;;;;;;5.22;4.82;;;3.10;99.90;;;;;;5043656;28;20706;-64
2021/12/29 03:38:59;;;;;;;5.07;4.78;;;3.10;99.90;;;;;;5040929;28;20199;-64
2021/12/29 03:41:27;;;;;;;5.20;4.80;;;3.10;99.90;;;;;;5040736;28;20222;-64
2021/12/29 03:43:54;;;;;;;4.65;4.35;;;3.10;99.90;;;;;;5043445;28;20199;-64
2021/12/29 03:46:24;;;;;;;3.97;3.78;;;3.10;99.90;;;;;;5047266;28;20223;-64
2021/12/29 03:48:51;;;;;;;4.35;4.05;;;3.10;99.90;;;;;;5046764;28;20219;-65
2021/12/29 03:51:18;;;;;;;4.68;4.38;;;3.20;99.90;;;;;;5042980;28;20230;-64
2021/12/29 03:53:45;;;;;;;6.78;5.05;;;3.20;99.90;;;;;;5040624;28;20199;-64
2021/12/29 03:56:12;;;;;;;4.80;4.50;;;3.10;99.90;;;;;;5045900;28;20253;-64
2021/12/29 03:58:41;;;;;;;4.60;4.25;;;3.20;99.90;;;;;;5048264;28;20199;-65
2021/12/29 04:01:10;;;;;;;4.55;4.25;;;3.20;99.90;;;;;;5042092;28;20226;-64
2021/12/29 04:03:42;;;;;;;4.38;4.07;;;3.20;99.90;;;;;;5048570;28;20199;-64
2021/12/29 04:06:09;;;;;;;4.57;4.28;;;3.20;99.90;;;;;;5047427;28;20583;-64
2021/12/29 04:08:37;;;;;;;4.70;4.40;;;3.20;99.90;;;;;;5052066;28;20671;-64
2021/12/29 04:11:04;;;;;;;3.72;3.50;;;3.30;99.90;;;;;;5048991;28;20219;-65
2021/12/29 04:13:31;;;;;;;4.32;4.05;;;3.30;99.90;;;;;;5047105;28;20191;-64
2021/12/29 04:15:58;;;;;;;4.88;4.47;;;3.30;99.90;;;;;;5058147;28;20776;-65
2021/12/29 04:18:30;;;;;;;4.28;3.97;;;3.40;99.90;;;;;;5050917;28;20264;-64
2021/12/29 04:21:04;;;;;;;4.20;3.90;;;3.30;99.90;;;;;;5046089;28;20246;-64
2021/12/29 04:23:33;;;;;;;4.78;4.47;;;3.30;99.90;;;;;;5045789;28;20577;-64
2021/12/29 04:26:01;;;;;;;3.92;3.63;;;3.20;99.90;;;;;;5049680;28;20218;-64
2021/12/29 04:28:29;;;;;;;4.93;4.53;;;3.20;99.90;;;;;;5045254;28;20226;-64
2021/12/29 04:30:59;;;;;;;3.67;3.47;;;3.30;99.90;;;;;;5046090;28;20223;-64
2021/12/29 04:33:28;;;;;;;4.10;3.80;;;3.30;99.90;;;;;;5045064;28;20688;-64
2021/12/29 04:35:56;;;;;;;4.63;4.32;;;3.20;99.90;;;;;;5046569;28;20431;-64
2021/12/29 04:38:25;;;;;;;4.35;4.07;;;3.20;99.90;;;;;;5046284;28;20226;-64
2021/12/29 04:40:54;;;;;;;3.95;3.67;;;3.20;99.90;;;;;;5047557;28;20215;-64
2021/12/29 04:43:22;;;;;;;4.82;4.50;;;3.20;99.90;;;;;;5048257;28;20284;-64
2021/12/29 04:45:49;;;;;;;4.22;3.85;;;3.20;99.90;;;;;;5045704;28;20218;-64
2021/12/29 04:48:17;;;;;;;4.30;4.00;;;3.20;99.90;;;;;;5045383;28;20555;-64
2021/12/29 04:50:52;;;;;;;4.68;4.38;;;3.20;99.90;;;;;;5043785;28;20219;-64
2021/12/29 04:53:20;;;;;;;4.38;4.07;;;3.20;99.90;;;;;;5042581;28;20275;-64
2021/12/29 04:55:49;;;;;;;4.30;4.07;;;3.30;99.90;;;;;;5047017;28;20325;-64
2021/12/29 04:58:20;;;;;;;4.35;4.05;;;3.20;99.90;;;;;;5052153;28;20226;-64
2021/12/29 05:00:48;;;;;;;4.82;4.53;;;3.20;99.90;;;;;;5056442;28;20214;-64
2021/12/29 05:03:15;;;;;;;3.58;3.38;;;3.20;99.90;;;;;;5049907;28;20230;-64
2021/12/29 05:05:53;;;;;;;4.03;3.83;;;3.20;99.90;;;;;;5041941;28;20210;-64
2021/12/29 05:08:26;;;;;;;4.05;3.85;;;3.20;99.90;;;;;;5044542;28;20712;-64
2021/12/29 05:10:59;;;;;;;4.47;4.18;;;3.20;99.90;;;;;;5047134;28;20221;-65
2021/12/29 05:13:28;;;;;;;4.53;4.22;;;3.20;99.90;;;;;;5047097;28;20718;-64
2021/12/29 05:15:56;;;;;;;3.80;3.60;;;3.20;99.90;;;;;;5047009;28;20592;-64
2021/12/29 05:18:24;;;;;;;3.50;3.30;;;3.20;99.90;;;;;;5042987;28;20349;-64
2021/12/29 05:20:51;;;;;;;4.10;3.90;;;3.20;99.90;;;;;;5046969;28;20643;-64
2021/12/29 05:23:18;;;;;;;4.60;4.30;;;3.20;99.90;;;;;;5044120;28;20219;-64
2021/12/29 05:25:46;;;;;;;3.97;3.78;;;3.20;99.90;;;;;;5043973;28;20281;-64
2021/12/29 05:28:14;;;;;;;4.63;4.32;;;3.20;99.90;;;;;;5045530;28;20219;-64
2021/12/29 05:30:41;;;;;;;4.43;4.13;;;3.20;99.90;;;;;;5045208;28;20664;-64
2021/12/29 05:33:08;;;;;;;4.28;3.97;;;3.20;99.90;;;;;;5047254;28;20215;-68
2021/12/29 05:35:35;;;;;;;4.38;4.07;;;3.20;99.90;;;;;;5048910;28;20191;-64
2021/12/29 05:38:03;;;;;;;5.18;4.78;;;3.10;99.90;;;;;;5047208;28;20766;-64
2021/12/29 05:40:31;;;;;;;4.45;4.15;;;3.10;99.90;;;;;;5043885;28;20223;-65
2021/12/29 05:42:59;;;;;;;4.38;4.07;;;3.10;99.90;;;;;;5054315;28;20211;-64
2021/12/29 05:45:28;;;;;;;4.50;4.20;;;3.00;99.90;;;;;;5046734;28;20787;-64
2021/12/29 05:47:56;;;;;;;3.90;3.67;;;3.00;99.90;;;;;;5045835;28;20288;-64
2021/12/29 05:50:26;;;;;;;4.00;3.80;;;3.00;99.90;;;;;;5042742;28;20269;-64
2021/12/29 05:52:54;;;;;;;5.53;4.97;;;3.00;99.90;;;;;;5043401;28;20218;-64
2021/12/29 05:55:21;;;;;;;4.68;4.38;;;3.00;99.90;;;;;;5047395;28;20198;-64
2021/12/29 05:57:48;;;;;;;4.78;4.47;;;3.00;99.90;;;;;;5043595;28;20642;-64
2021/12/29 06:00:19;;;;;;;5.13;4.82;;;3.00;99.90;;;;;;5046197;28;20222;-64
2021/12/29 06:02:47;;;;;;;4.38;4.18;;;2.90;99.90;;;;;;5042112;28;20223;-64
2021/12/29 06:05:15;;;;;;;4.80;4.50;;;2.90;99.90;;;;;;5044740;28;20644;-64
2021/12/29 06:07:42;;;;;;;4.45;4.05;;;2.90;99.90;;;;;;5045062;28;20751;-64
2021/12/29 06:10:11;;;;;;;3.97;3.67;;;3.00;99.90;;;;;;5044560;28;20227;-65
2021/12/29 06:12:39;;;;;;;4.88;4.47;;;3.00;99.90;;;;;;5042663;28;20223;-64
2021/12/29 06:15:08;;;;;;;4.20;3.90;;;3.10;99.90;;;;;;5042628;28;20199;-64
2021/12/29 06:17:36;;;;;;;4.28;3.97;;;3.20;99.90;;;;;;5044956;28;20219;-64
2021/12/29 06:20:06;;;;;;;4.00;3.75;;;3.20;99.90;;;;;;5088823;22;20877;-76
2021/12/29 06:22:33;;;;;;;3.83;3.55;;;3.20;99.90;;;;;;5041565;28;20278;-75
2021/12/29 06:25:01;;;;;;;4.15;3.95;;;3.20;99.90;;;;;;5037576;28;20207;-76
2021/12/29 06:27:28;;;;;;;4.50;4.20;;;3.30;99.90;;;;;;5046219;28;20231;-76
2021/12/29 06:29:55;;;;;;;3.90;3.70;;;3.30;99.90;;;;;;5044233;28;20253;-76
2021/12/29 06:32:22;;;;;;;3.80;3.60;;;3.30;99.90;;;;;;5023320;28;20215;-75
2021/12/29 06:34:49;;;;;;;4.25;3.95;;;3.40;99.90;;;;;;5026483;28;20204;-76
2021/12/29 06:37:18;;;;;;;4.13;3.83;;;3.40;99.90;;;;;;5022217;28;20266;-75
2021/12/29 06:39:46;;;;;;;3.60;3.40;;;3.50;99.90;;;;;;5023209;28;20254;-76
2021/12/29 06:42:15;;;;;;;3.45;3.25;;;3.50;99.90;;;;;;5020105;28;20286;-76
2021/12/29 06:44:42;;;;;;;3.10;2.90;;;3.60;99.90;;;;;;5025722;28;20200;-76
2021/12/29 06:47:10;;;;;;;4.18;3.88;;;3.60;99.90;;;;;;5023664;28;20607;-76
2021/12/29 06:49:37;;;;;;;4.80;4.40;;;3.60;99.90;;;;;;5015736;28;20215;-76
2021/12/29 06:52:06;;;;;;;5.45;5.05;;;3.60;99.90;;;;;;5025991;28;20227;-76
2021/12/29 06:54:35;;;;;;;5.13;4.72;;;3.60;99.90;;;;;;5020495;28;20188;-75
2021/12/29 06:57:02;;;;;;;4.63;4.22;;;3.50;99.90;;;;;;5027991;28;20218;-78
2021/12/29 06:59:29;;;;;;;4.35;4.05;;;3.50;99.90;;;;;;5026614;28;20253;-76
2021/12/29 07:01:57;;;;;;;4.45;4.15;;;3.50;99.90;;;;;;5023508;28;20286;-76
2021/12/29 07:04:24;;;;;;;4.40;4.15;;;3.40;99.90;;;;;;5024726;28;20666;-76
2021/12/29 07:06:51;;;;;;;4.38;4.07;;;3.40;99.90;;;;;;5022050;28;20295;-76
2021/12/29 07:09:19;;;;;;;4.63;4.32;;;3.30;99.90;;;;;;5024097;28;20199;-76
2021/12/29 07:11:48;;;;;;;5.90;5.50;;;3.30;99.90;;;;;;5025001;28;20215;-76
2021/12/29 07:14:15;;;;;;;5.28;4.90;;;3.20;99.90;;;;;;5021240;28;20242;-76
2021/12/29 07:16:44;;;;;;;4.95;4.65;;;3.20;99.90;;;;;;5012523;28;20199;-76
2021/12/29 07:19:11;;;;;;;5.03;4.72;;;3.20;99.90;;;;;;5023925;28;20207;-76
2021/12/29 07:21:38;;;;;;;4.95;4.60;;;3.30;99.90;;;;;;5021717;28;20234;-76
2021/12/29 07:24:07;;;;;;;4.82;4.43;;;3.50;99.90;;;;;;5015552;28;20200;-75
2021/12/29 07:26:35;;;;;;;5.07;4.78;;;3.60;99.90;;;;;;5019641;28;20227;-77
2021/12/29 07:29:04;;;;;;;4.80;4.50;;;3.60;99.90;;;;;;5021228;28;20477;-76
2021/12/29 07:31:32;;;;;;;4.20;3.97;;;3.60;99.90;;;;;;5018107;28;20211;-76
2021/12/29 07:34:00;;;;;;;4.32;4.03;;;3.60;99.90;;;;;;5021539;28;20224;-76
2021/12/29 07:36:27;;;;;;;5.20;4.78;;;3.60;99.90;;;;;;5021951;28;20203;-75
2021/12/29 07:38:54;;;;;;;4.43;4.13;;;3.60;99.90;;;;;;5024904;28;20215;-75
2021/12/29 07:41:21;;;;;;;4.82;4.53;;;3.70;99.90;;;;;;5024505;28;20698;-75
2021/12/29 07:43:50;;;;;;;4.45;4.13;;;3.80;99.90;;;;;;5023840;28;20828;-76
2021/12/29 07:46:19;;;;;;;4.38;3.80;;;3.90;99.90;;;;;;5023512;28;20223;-76
2021/12/29 07:48:46;;;;;;;4.93;4.50;;;4.00;99.90;;;;;;5026273;28;20272;-76
2021/12/29 07:51:15;;;;;;;4.47;4.18;;;4.00;99.90;;;;;;5023932;28;20611;-75
2021/12/29 07:53:42;;;;;;;3.90;3.60;;;4.00;99.90;;;;;;5019439;28;20218;-77
2021/12/29 07:56:09;;;;;;;4.55;4.25;;;4.00;99.90;;;;;;5016770;28;20287;-73
2021/12/29 07:58:36;;;;;;;4.90;4.50;;;4.00;99.90;;;;;;5017903;28;20317;-76
2021/12/29 08:01:04;;;;;;;4.78;4.47;;;3.90;99.90;;;;;;5021667;28;20219;-75
2021/12/29 08:03:32;;;;;;;5.32;5.00;;;3.90;99.90;;;;;;5016787;28;20223;-74
2021/12/29 08:06:00;;;;;;;4.72;4.43;;;3.90;99.90;;;;;;5019911;28;20230;-73
2021/12/29 08:08:27;;;;;;;5.00;4.70;;;3.90;99.90;;;;;;5025202;28;20222;-76
2021/12/29 08:10:54;;;;;;;4.78;4.47;;;3.90;99.90;;;;;;5017252;28;20227;-75
2021/12/29 08:13:22;;;;;;;4.88;4.55;;;3.90;99.90;;;;;;5018496;28;20872;-73
2021/12/29 08:15:49;;;;;;;4.95;4.60;;;4.00;99.90;;;;;;5018374;28;20195;-75
2021/12/29 08:18:16;;;;;;;5.10;4.70;;;4.10;99.90;;;;;;5021846;28;20231;-76
2021/12/29 08:20:44;;;;;;;4.95;4.55;;;4.20;99.90;;;;;;5023192;28;20220;-76
2021/12/29 08:23:12;;;;;;;6.03;5.57;;;4.50;99.90;;;;;;5019370;28;20228;-75
2021/12/29 08:25:39;;;;;;;5.15;4.75;;;5.40;99.90;;;;;;5018285;28;20203;-75
2021/12/29 08:28:07;;;;;;;5.60;5.20;;;6.20;99.90;;;;;;5019825;28;20330;-74
2021/12/29 08:30:34;;;;;;;6.10;5.60;;;6.90;99.90;;;;;;5021030;28;20409;-77
2021/12/29 08:33:01;;;;;;;6.15;5.65;;;7.50;99.90;;;;;;5020294;28;20265;-75
2021/12/29 08:35:29;;;;;;;5.72;5.22;;;8.20;99.90;;;;;;5019715;28;20660;-76
2021/12/29 08:37:58;;;;;;;5.72;5.22;;;8.90;99.90;;;;;;5021205;28;20548;-74
2021/12/29 08:40:26;;;;;;;5.40;4.90;;;9.40;99.90;;;;;;5022511;28;20277;-75
2021/12/29 08:42:55;;;;;;;5.38;4.97;;;9.90;99.90;;;;;;5026225;28;20231;-76
2021/12/29 08:45:23;;;;;;;5.28;4.78;;;10.30;99.90;;;;;;5025029;28;20215;-74
2021/12/29 08:47:52;;;;;;;6.40;5.82;;;10.80;99.90;;;;;;5016843;28;20538;-76
2021/12/29 08:50:22;;;;;;;6.00;5.38;;;10.90;99.90;;;;;;5021675;28;20631;-76
2021/12/29 08:52:49;;;;;;;6.68;6.15;;;11.00;99.90;;;;;;5024559;28;20251;-77
2021/12/29 08:55:18;;;;;;;6.57;6.07;;;11.20;99.90;;;;;;5022322;28;20253;-75
2021/12/29 08:57:45;;;;;;;6.88;6.20;;;11.40;99.90;;;;;;5014628;28;20773;-76
2021/12/29 09:00:16;;;;;;;7.07;5.95;;;11.90;99.90;;;;;;5022722;28;20698;-76
2021/12/29 09:02:43;;;;;;;7.10;6.50;;;12.40;99.90;;;;;;5023832;28;20563;-75
2021/12/29 09:05:11;;;;;;;6.60;6.00;;;13.30;99.90;;;;;;5023807;28;20196;-75
2021/12/29 09:07:38;;;;;;;6.40;5.80;;;14.00;99.90;;;;;;5019838;28;20227;-75
2021/12/29 09:10:07;;;;;;;6.18;5.63;;;14.30;99.90;;;;;;5020098;28;20325;-76
2021/12/29 09:12:35;;;;;;;7.63;6.93;;;14.20;99.90;;;;;;5021750;28;20227;-75
2021/12/29 09:15:03;;;;;;;6.70;6.10;;;14.20;99.90;;;;;;5012918;28;20200;-77
2021/12/29 09:17:32;;;;;;;6.93;6.25;;;14.80;99.90;;;;;;5023221;28;20219;-75
2021/12/29 09:20:01;;;;;;;7.75;6.65;;;16.00;99.90;;;;;;5015164;28;20207;-75
2021/12/29 09:22:28;;;;;;;6.93;6.13;;;17.30;99.90;;;;;;5025816;28;20223;-75
2021/12/29 09:24:55;;;;;;;6.45;5.80;;;18.70;99.90;;;;;;5022566;28;20208;-74
2021/12/29 09:27:22;;;;;;;6.35;5.75;;;19.20;99.90;;;;;;5020081;28;20583;-74
2021/12/29 09:29:55;;;;;;;8.02;5.75;;;19.70;99.90;;;;;;5018883;28;20278;-75
2021/12/29 09:32:22;;;;;;;9.80;6.90;;;20.10;99.90;;;;;;5021475;28;20287;-75
2021/12/29 09:34:49;;;;;;;7.05;6.20;;;19.80;99.90;;;;;;5023625;28;20223;-75
2021/12/29 09:37:17;;;;;;;6.22;5.57;;;19.70;99.90;;;;;;5030058;28;20279;-76
2021/12/29 09:39:44;;;;;;;5.75;5.25;;;20.10;98.00;;;;;;5025463;28;20319;-76
2021/12/29 09:42:11;;;;;;;4.90;4.45;;;20.70;96.90;;;;;;5019781;28;20223;-77
2021/12/29 09:44:40;;;;;;;5.30;4.80;;;21.10;95.60;;;;;;5019370;28;20728;-74
2021/12/29 09:47:08;;;;;;;5.18;4.68;;;21.10;94.70;;;;;;5020063;28;20220;-76
2021/12/29 09:49:37;;;;;;;5.95;5.43;;;20.40;94.20;;;;;;5017664;28;20220;-76
2021/12/29 09:52:05;;;;;;;5.63;5.07;;;20.10;93.10;;;;;;5020165;28;20291;-74
2021/12/29 09:54:33;;;;;;;5.45;4.93;;;19.10;95.60;;;;;;5021918;28;20222;-74
2021/12/29 09:57:00;;;;;;;5.70;5.18;;;18.40;97.20;;;;;;5018821;28;20269;-77
2021/12/29 09:59:28;;;;;;;4.82;4.43;;;18.10;96.90;;;;;;5020107;28;20807;-77
2021/12/29 10:01:57;;;;;;;5.13;4.70;;;17.70;97.20;;;;;;5024918;28;20237;-76
2021/12/29 10:04:26;;;;;;;5.72;5.22;;;17.30;98.60;;;;;;5023870;28;20227;-76
2021/12/29 10:06:53;;;;;;;6.40;5.90;;;16.50;99.90;;;;;;5020547;28;20216;-78
2021/12/29 10:09:22;;;;;;;6.82;6.10;;;15.20;99.90;;;;;;5018464;28;20227;-76
2021/12/29 10:11:50;;;;;;;6.50;5.90;;;14.00;99.90;;;;;;5013596;28;20279;-76
2021/12/29 10:14:18;;;;;;;6.07;5.57;;;13.00;99.90;;;;;;5024529;28;20217;-76
2021/12/29 10:16:48;;;;;;;5.75;5.25;;;12.10;99.90;;;;;;5020562;28;20554;-77
2021/12/29 10:19:16;;;;;;;5.68;5.18;;;11.60;99.90;;;;;;5021891;28;20230;-75
2021/12/29 10:21:46;;;;;;;5.70;5.18;;;11.50;99.90;;;;;;5020785;28;20637;-76
2021/12/29 10:24:13;;;;;;;5.85;5.32;;;11.60;99.90;;;;;;5024230;28;20227;-76
2021/12/29 10:26:44;;;;;;;5.38;4.82;;;11.50;99.90;;;;;;5019262;28;20222;-76
2021/12/29 10:29:17;;;;;;;5.30;4.85;;;11.20;99.90;;;;;;5023704;28;20216;-76
2021/12/29 10:31:49;;;;;;;4.97;4.57;;;10.90;99.90;;;;;;5033641;28;20230;-75
2021/12/29 10:34:20;;;;;;;5.15;4.75;;;10.70;99.90;;;;;;5020156;28;20547;-76
2021/12/29 10:36:50;;;;;;;4.85;4.45;;;10.40;99.90;;;;;;5017819;28;20199;-77
2021/12/29 10:39:20;;;;;;;5.90;4.60;;;10.20;99.90;;;;;;5019688;28;20220;-75
2021/12/29 10:41:55;;;;;;;5.13;4.63;;;10.00;99.90;;;;;;5014344;28;20220;-76
2021/12/29 10:44:28;;;;;;;4.95;4.53;;;9.80;99.90;;;;;;5016496;28;20226;-76
2021/12/29 10:46:56;;;;;;;5.18;4.68;;;9.70;99.90;;;;;;5023751;28;20648;-74
2021/12/29 10:49:25;;;;;;;5.07;4.68;;;9.50;99.90;;;;;;5020974;28;20212;-76
2021/12/29 10:51:55;;;;;;;7.00;5.63;;;9.50;99.90;;;;;;5017287;28;20307;-77
2021/12/29 10:54:24;;;;;;;5.50;4.88;;;9.50;99.90;;;;;;5018269;28;20254;-75
2021/12/29 10:57:01;;;;;;;5.50;5.00;;;9.40;99.90;;;;;;5017845;28;20295;-76
2021/12/29 10:59:31;;;;;;;5.68;5.18;;;9.60;99.90;;;;;;5013230;28;20590;-76
2021/12/29 11:01:59;;;;;;;5.50;5.03;;;9.60;99.90;;;;;;5022124;28;20251;-74
2021/12/29 11:04:27;;;;;;;5.78;5.20;;;9.60;99.90;;;;;;5019789;28;20227;-75
2021/12/29 11:06:57;;;;;;;5.70;5.20;;;9.40;99.90;;;;;;5018213;28;20246;-76
2021/12/29 11:09:29;;;;;;;5.70;4.90;;;9.30;99.90;;;;;;5019919;28;20216;-76
2021/12/29 11:11:57;;;;;;;6.10;5.43;;;9.20;99.90;;;;;;5019429;28;20228;-75
2021/12/29 11:14:27;;;;;;;6.32;5.75;;;9.30;99.90;;;;;;5020309;28;20314;-77
2021/12/29 11:17:06;;;;;;;5.50;5.05;;;9.20;99.90;;;;;;5022790;28;20203;-76
2021/12/29 11:19:33;;;;;;;5.20;4.57;;;9.40;99.90;;;;;;5020672;28;20223;-76
2021/12/29 11:22:09;;;;;;;5.57;5.07;;;9.50;99.90;;;;;;5020444;28;20230;-76
2021/12/29 11:24:37;;;;;;;4.70;4.30;;;9.70;99.90;;;;;;5028414;28;20243;-78
2021/12/29 11:27:18;;;;;;;5.35;4.80;;;9.90;99.90;;;;;;5020978;28;20224;-77
2021/12/29 11:29:54;;;;;;;5.60;5.10;;;9.80;99.90;;;;;;5022699;28;20223;-75
2021/12/29 11:32:28;;;;;;;4.95;4.55;;;9.60;99.90;;;;;;5018347;28;20206;-76
2021/12/29 11:35:00;;;;;;;5.53;5.03;;;9.60;99.90;;;;;;5019363;28;20654;-75
2021/12/29 11:37:29;;;;;;;5.18;4.65;;;9.80;99.90;;;;;;5021853;28;20735;-76
2021/12/29 11:39:56;;;;;;;5.40;5.00;;;9.80;99.90;;;;;;5016938;28;20223;-77
2021/12/29 11:42:24;;;;;;;4.93;4.53;;;9.70;99.90;;;;;;5016662;28;20196;-75
2021/12/29 11:44:51;;;;;;;5.10;4.65;;;9.70;99.90;;;;;;5020085;28;20253;-76
2021/12/29 11:47:18;;;;;;;5.50;5.00;;;10.10;99.90;;;;;;5016072;28;20427;-76
2021/12/29 11:49:46;;;;;;;6.13;5.13;;;10.50;99.90;;;;;;5020159;28;20226;-76
2021/12/29 11:52:22;;;;;;;5.35;4.85;;;10.60;99.90;;;;;;5024216;28;20621;-77
2021/12/29 11:54:59;;;;;;;6.93;5.78;;;10.60;99.90;;;;;;5020984;28;20245;-76
2021/12/29 11:57:28;;;;;;;5.63;5.13;;;10.70;99.90;;;;;;5018227;28;20211;-75
2021/12/29 12:00:07;;;;;;;5.18;4.68;;;10.70;99.90;;;;;;5023809;28;20219;-75
2021/12/29 12:02:35;;;;;;;5.78;5.18;;;11.00;99.90;;;;;;5020014;28;20192;-78
2021/12/29 12:05:02;;;;;;;6.28;5.00;;;11.20;99.90;;;;;;5016790;28;20256;-77
2021/12/29 12:07:29;;;;;;;5.32;4.82;;;11.10;99.90;;;;;;5021945;28;20207;-77
2021/12/29 12:10:01;;;;;;;6.90;6.25;;;11.10;99.90;;;;;;5023666;28;20572;-77
2021/12/29 12:12:35;;;;;;;6.97;6.20;;;11.00;99.90;;;;;;5024071;28;20196;-76
2021/12/29 12:15:04;;;;;;;6.60;6.00;;;10.90;99.90;;;;;;5021380;28;20230;-77
2021/12/29 12:17:31;;;;;;;6.35;5.75;;;11.00;99.90;;;;;;5029663;28;20200;-78
2021/12/29 12:20:01;;;;;;;9.00;6.13;;;11.00;99.90;;;;;;5021350;28;20285;-76
2021/12/29 12:22:29;;;;;;;5.65;5.15;;;11.00;99.90;;;;;;5073456;22;20229;-78
2021/12/29 12:25:03;;;;;;;6.80;6.13;;;11.00;99.90;;;;;;5066244;28;20328;-78
2021/12/29 12:27:32;;;;;;;6.13;5.53;;;11.10;99.90;;;;;;5065928;28;20411;-79
2021/12/29 12:30:10;;;;;;;7.38;6.00;;;11.20;99.90;;;;;;5069034;28;20222;-78
2021/12/29 12:32:43;;;;;;;7.15;6.45;;;11.30;99.90;;;;;;5057486;28;20256;-80
2021/12/29 12:35:11;;;;;;;6.00;5.40;;;11.30;99.90;;;;;;5053321;28;20594;-77
2021/12/29 12:37:40;;;;;;;7.68;5.75;;;11.40;99.90;;;;;;5055200;28;20202;-78
2021/12/29 12:40:14;;;;;;;6.63;6.03;;;11.40;99.90;;;;;;5056179;28;20685;-78
2021/12/29 12:42:42;;;;;;;6.45;5.45;;;11.70;99.90;;;;;;5060289;28;20260;-78
2021/12/29 12:45:22;;;;;;;8.80;5.43;;;11.60;99.90;;;;;;5062445;28;20258;-78
2021/12/29 12:47:49;;;;;;;6.30;5.70;;;11.30;99.90;;;;;;5061581;28;20225;-78
2021/12/29 12:50:28;;;;;;;5.72;5.22;;;11.00;99.90;;;;;;5060624;28;20238;-79
2021/12/29 12:52:56;;;;;;;8.20;7.10;;;10.90;99.90;;;;;;5058652;28;20212;-77
2021/12/29 12:55:25;;;;;;;8.25;6.47;;;10.60;99.90;;;;;;5061066;28;20206;-78
2021/12/29 12:57:53;;;;;;;6.82;6.13;;;10.40;99.90;;;;;;5055364;28;20444;-77
2021/12/29 13:00:22;;;;;;;6.25;5.65;;;10.40;99.90;;;;;;5056543;28;20228;-79
2021/12/29 13:02:52;;;;;;;6.47;5.78;;;10.40;99.90;;;;;;5056265;28;20225;-76